Arlington, Minnesota
Current Conditions -  °F | °C
As of 6:54 PM on Monday 24 Nov 2014 (Local Time) from KGYL Reporting Station
Overcast Overcast  
Wind Chill:   Ceiling: 1500
Heat Index: 16°   Visibility: 10mi
Dew Point: 11°   Wind: 16mph
Humidity: 79%   Direction: 300°WNW
Pressure: 29.81"   Gusts: NA
Location:  44.61°N, 94.08°W
Report Text: KGYL 250054Z AUTO 30014KT 10SM BKN015 OVC025 M09/M12 A2981 RMK AO2 T10871117
Loading
Personal Weather Stations






























Interactive Weather Map New forecast layout! Learn more

10-Day Weather Forecast

Advertisements
Track Severe Weather on mobile